Time;durP1;ratioP1;P1;durP2;ratioP2;P2;SDS_P1;SDS_P2;PMS_P1;PMS_P2;Temp;Humidity;BMP_temperature;BMP_pressure;BME280_temperature;BME280_humidity;BME280_pressure;Samples;Min_cycle;Max_cycle;Signal;HPM_P1;HPM_P2
2024/04/18 00:00:58;;;;;;;2.88;1.77;;;4.00;99.90;;;;;;5450897;26;20284;-74
2024/04/18 00:03:24;;;;;;;1.95;1.75;;;4.10;99.90;;;;;;5450889;26;20240;-74
2024/04/18 00:05:52;;;;;;;2.63;1.43;;;4.10;99.90;;;;;;5450910;26;20510;-74
2024/04/18 00:08:20;;;;;;;2.55;1.80;;;4.20;99.90;;;;;;5450932;26;20235;-74
2024/04/18 00:10:49;;;;;;;1.77;1.30;;;4.20;99.90;;;;;;5451084;26;20271;-74
2024/04/18 00:13:17;;;;;;;1.77;1.40;;;4.20;99.90;;;;;;5450800;26;20267;-74
2024/04/18 00:15:45;;;;;;;1.63;1.40;;;4.20;99.90;;;;;;5450694;26;20234;-74
2024/04/18 00:18:13;;;;;;;1.48;1.38;;;4.20;99.90;;;;;;5450569;26;20292;-74
2024/04/18 00:20:39;;;;;;;2.05;1.60;;;4.20;99.90;;;;;;5450371;26;20573;-74
2024/04/18 00:23:07;;;;;;;2.90;1.50;;;4.20;99.90;;;;;;5450365;26;20239;-74
2024/04/18 00:25:33;;;;;;;2.15;1.73;;;4.20;99.90;;;;;;5450359;26;20578;-74
2024/04/18 00:28:02;;;;;;;1.60;1.40;;;4.20;99.90;;;;;;5450100;26;20290;-74
2024/04/18 00:30:27;;;;;;;1.30;1.08;;;4.10;99.90;;;;;;5449749;26;20467;-74
2024/04/18 00:32:58;;;;;;;2.27;1.60;;;4.10;99.90;;;;;;5449554;26;20627;-74
2024/04/18 00:35:24;;;;;;;2.05;1.20;;;4.20;99.90;;;;;;5450256;26;20235;-74
2024/04/18 00:37:55;;;;;;;1.77;1.37;;;4.20;99.90;;;;;;5449989;26;20279;-74
2024/04/18 00:40:20;;;;;;;2.20;2.00;;;4.20;99.90;;;;;;5449700;26;20236;-74
2024/04/18 00:42:49;;;;;;;2.17;1.50;;;4.20;99.90;;;;;;5449995;26;20653;-74
2024/04/18 00:45:15;;;;;;;1.40;1.30;;;4.20;99.90;;;;;;5450295;26;20277;-74
2024/04/18 00:47:44;;;;;;;1.50;1.40;;;4.10;99.90;;;;;;5450113;26;20283;-74
2024/04/18 00:50:15;;;;;;;1.40;1.17;;;4.10;99.90;;;;;;5449367;26;20278;-74
2024/04/18 00:52:44;;;;;;;1.58;1.40;;;4.10;99.90;;;;;;5450090;26;20231;-74
2024/04/18 00:55:10;;;;;;;1.20;1.08;;;4.10;99.90;;;;;;5449899;26;20272;-74
2024/04/18 00:57:39;;;;;;;2.00;1.20;;;4.10;99.90;;;;;;5449611;26;20580;-74
2024/04/18 01:00:06;;;;;;;3.53;1.67;;;4.00;99.90;;;;;;5449263;26;20306;-74
2024/04/18 01:02:35;;;;;;;3.42;2.08;;;4.00;99.90;;;;;;5449640;26;20239;-74
2024/04/18 01:05:01;;;;;;;1.30;1.20;;;4.00;99.90;;;;;;5449677;26;20568;-74
2024/04/18 01:07:32;;;;;;;2.58;1.80;;;3.90;99.90;;;;;;5449678;26;20289;-74
2024/04/18 01:09:58;;;;;;;1.30;1.20;;;3.90;99.90;;;;;;5449328;26;20238;-74
2024/04/18 01:12:27;;;;;;;1.70;1.40;;;3.80;99.90;;;;;;5449727;26;20283;-74
2024/04/18 01:14:52;;;;;;;2.80;1.40;;;3.90;99.90;;;;;;5449644;26;20266;-74
2024/04/18 01:17:21;;;;;;;2.40;1.40;;;4.00;99.90;;;;;;5449296;26;20631;-74
2024/04/18 01:19:46;;;;;;;1.20;1.10;;;4.00;99.90;;;;;;5449137;26;20233;-74
2024/04/18 01:22:15;;;;;;;1.70;1.30;;;4.00;99.90;;;;;;5449512;26;20703;-74
2024/04/18 01:24:43;;;;;;;1.50;1.40;;;4.10;99.90;;;;;;5449415;26;20230;-74
2024/04/18 01:27:14;;;;;;;2.10;1.50;;;4.10;99.90;;;;;;5449167;26;20231;-74
2024/04/18 01:29:40;;;;;;;1.30;1.10;;;4.10;99.90;;;;;;5449150;26;20768;-74
2024/04/18 01:32:08;;;;;;;2.77;1.40;;;4.10;99.90;;;;;;5449061;26;20248;-74
2024/04/18 01:34:34;;;;;;;1.35;1.20;;;4.10;99.90;;;;;;5449157;26;20863;-74
2024/04/18 01:37:03;;;;;;;1.17;1.07;;;4.10;99.90;;;;;;5448847;26;20270;-74
2024/04/18 01:39:28;;;;;;;1.20;1.10;;;4.10;99.90;;;;;;5448708;26;20241;-74
2024/04/18 01:41:57;;;;;;;1.77;1.30;;;4.20;99.90;;;;;;5448932;26;20232;-74
2024/04/18 01:44:25;;;;;;;1.20;1.10;;;4.20;99.90;;;;;;5451528;26;20240;-74
2024/04/18 01:46:53;;;;;;;1.38;1.27;;;4.20;99.90;;;;;;5452570;26;20237;-74
2024/04/18 01:49:19;;;;;;;1.40;1.20;;;4.20;99.90;;;;;;5452236;26;20674;-74
2024/04/18 01:51:47;;;;;;;2.60;1.57;;;4.20;99.90;;;;;;5452679;26;20233;-74
2024/04/18 01:54:13;;;;;;;2.38;1.33;;;4.20;99.90;;;;;;5452644;26;20503;-74
2024/04/18 01:56:41;;;;;;;1.30;1.20;;;4.20;99.90;;;;;;5452586;26;20237;-74
2024/04/18 01:59:07;;;;;;;1.73;1.10;;;4.20;99.90;;;;;;5452121;26;20764;-74
2024/04/18 02:01:38;;;;;;;1.40;1.20;;;4.20;99.90;;;;;;5452704;26;20238;-74
2024/04/18 02:04:04;;;;;;;1.52;1.23;;;4.20;99.90;;;;;;5452465;26;20229;-74
2024/04/18 02:06:32;;;;;;;1.40;1.17;;;4.10;99.90;;;;;;5452593;26;20282;-74
2024/04/18 02:08:58;;;;;;;1.75;1.52;;;4.10;99.90;;;;;;5452199;26;20557;-74
2024/04/18 02:11:28;;;;;;;1.60;1.17;;;4.10;99.90;;;;;;5452200;26;20239;-74
2024/04/18 02:13:53;;;;;;;2.88;1.20;;;4.10;99.90;;;;;;5452419;26;20588;-74
2024/04/18 02:16:22;;;;;;;4.77;1.43;;;4.10;99.90;;;;;;5452018;26;20244;-74
2024/04/18 02:18:50;;;;;;;2.70;1.75;;;4.10;99.90;;;;;;5452130;26;20240;-74
2024/04/18 02:21:18;;;;;;;1.70;1.55;;;4.10;99.90;;;;;;5452248;26;20234;-74
2024/04/18 02:23:44;;;;;;;1.30;1.20;;;4.10;99.90;;;;;;5452423;26;20237;-74
2024/04/18 02:26:12;;;;;;;2.60;1.50;;;4.10;99.90;;;;;;5452266;26;20275;-74
2024/04/18 02:28:39;;;;;;;1.35;1.25;;;4.20;99.90;;;;;;5451790;26;20238;-75
2024/04/18 02:31:07;;;;;;;1.42;1.33;;;4.20;99.90;;;;;;5451646;26;20255;-74
2024/04/18 02:33:33;;;;;;;1.60;1.30;;;4.20;99.90;;;;;;5452091;26;20235;-74
2024/04/18 02:36:04;;;;;;;1.47;1.37;;;4.20;99.90;;;;;;5452457;26;20783;-74
2024/04/18 02:38:29;;;;;;;1.73;1.38;;;4.20;99.90;;;;;;5452232;26;20287;-74
2024/04/18 02:41:04;;;;;;;1.50;1.20;;;4.20;99.90;;;;;;5451471;26;20324;-74
2024/04/18 02:43:30;;;;;;;1.77;1.60;;;4.20;99.90;;;;;;5451967;26;20586;-74
2024/04/18 02:45:58;;;;;;;2.17;1.20;;;4.20;99.90;;;;;;5451823;26;20274;-74
2024/04/18 02:48:24;;;;;;;1.48;1.20;;;4.30;99.90;;;;;;5451967;26;20287;-74
2024/04/18 02:50:52;;;;;;;1.53;1.37;;;4.20;99.90;;;;;;5451500;26;20236;-74
2024/04/18 02:53:21;;;;;;;2.25;1.70;;;4.20;99.90;;;;;;5451932;26;20240;-73
2024/04/18 02:55:49;;;;;;;1.75;1.65;;;4.20;99.90;;;;;;5451323;26;20240;-74
2024/04/18 02:58:15;;;;;;;1.98;1.80;;;4.20;99.90;;;;;;5451536;26;20329;-74
2024/04/18 03:00:44;;;;;;;2.50;1.83;;;4.20;99.90;;;;;;5451392;26;20577;-74
2024/04/18 03:03:09;;;;;;;2.03;1.50;;;4.20;99.90;;;;;;5451796;26;20258;-73
2024/04/18 03:05:38;;;;;;;1.50;1.13;;;4.10;99.90;;;;;;5447235;26;20249;-74
2024/04/18 03:08:04;;;;;;;2.30;1.33;;;4.10;99.90;;;;;;5435864;26;20242;-74
2024/04/18 03:10:35;;;;;;;1.27;1.10;;;4.10;99.90;;;;;;5441153;26;20238;-75
2024/04/18 03:13:01;;;;;;;1.70;1.58;;;4.10;99.90;;;;;;5436947;26;20237;-74
2024/04/18 03:15:29;;;;;;;1.30;1.20;;;4.10;99.90;;;;;;5441407;26;20272;-74
2024/04/18 03:17:55;;;;;;;1.95;1.67;;;4.10;99.90;;;;;;5437066;26;20485;-74
2024/04/18 03:20:23;;;;;;;3.07;1.73;;;4.10;99.90;;;;;;5439336;26;20284;-74
2024/04/18 03:22:49;;;;;;;2.28;1.83;;;4.10;99.90;;;;;;5438689;26;20240;-73
2024/04/18 03:25:18;;;;;;;2.87;1.90;;;4.10;99.90;;;;;;5434864;26;20241;-74
2024/04/18 03:27:46;;;;;;;1.67;1.50;;;4.10;99.90;;;;;;5447462;26;20234;-74
2024/04/18 03:30:15;;;;;;;2.30;1.60;;;4.20;99.90;;;;;;5448679;26;20666;-74
2024/04/18 03:32:40;;;;;;;1.55;1.30;;;4.20;99.90;;;;;;5451201;26;20292;-74
2024/04/18 03:35:09;;;;;;;1.63;1.53;;;4.20;99.90;;;;;;5450876;26;20673;-73
2024/04/18 03:37:37;;;;;;;1.30;1.20;;;4.20;99.90;;;;;;5448905;26;20239;-74
2024/04/18 03:40:07;;;;;;;2.30;2.03;;;4.20;99.90;;;;;;5450774;26;20605;-74
2024/04/18 03:42:35;;;;;;;1.63;1.52;;;4.10;99.90;;;;;;5451141;26;20272;-73
2024/04/18 03:45:07;;;;;;;2.25;1.95;;;4.10;99.90;;;;;;5450903;26;20327;-75
2024/04/18 03:47:32;;;;;;;2.10;1.75;;;4.10;99.90;;;;;;5450981;26;20273;-74
2024/04/18 03:50:01;;;;;;;2.10;1.90;;;4.10;99.90;;;;;;5449783;26;20349;-73
2024/04/18 03:52:27;;;;;;;1.90;1.75;;;4.10;99.90;;;;;;5451328;26;20554;-72
2024/04/18 03:54:55;;;;;;;2.40;1.92;;;4.10;99.90;;;;;;5451580;26;20634;-73
2024/04/18 03:57:21;;;;;;;1.95;1.45;;;4.10;99.90;;;;;;5450604;26;20280;-73
2024/04/18 03:59:49;;;;;;;2.07;1.70;;;4.10;99.90;;;;;;5450851;26;20235;-73
2024/04/18 04:02:18;;;;;;;2.20;1.75;;;4.10;99.90;;;;;;5450817;26;20273;-72
2024/04/18 04:04:48;;;;;;;1.88;1.70;;;4.20;99.90;;;;;;5450995;26;20605;-73
2024/04/18 04:07:14;;;;;;;2.05;1.95;;;4.20;99.90;;;;;;5449312;26;20866;-72
2024/04/18 04:09:42;;;;;;;2.20;2.00;;;4.10;99.90;;;;;;5450351;26;20239;-72
2024/04/18 04:12:09;;;;;;;3.00;1.63;;;4.10;99.90;;;;;;5451405;26;20231;-73
2024/04/18 04:14:37;;;;;;;2.00;1.80;;;4.10;99.90;;;;;;5450760;26;20793;-73
2024/04/18 04:17:03;;;;;;;2.25;2.08;;;4.10;99.90;;;;;;5450643;26;20227;-73
2024/04/18 04:19:34;;;;;;;2.60;2.10;;;4.10;99.90;;;;;;5450307;26;20269;-73
2024/04/18 04:22:00;;;;;;;3.60;2.05;;;4.10;99.90;;;;;;5450679;26;20455;-73
2024/04/18 04:24:28;;;;;;;3.80;2.00;;;4.00;99.90;;;;;;5450240;26;20899;-73
2024/04/18 04:26:54;;;;;;;2.00;1.80;;;4.00;99.90;;;;;;5451287;26;20781;-73
2024/04/18 04:29:22;;;;;;;2.33;2.13;;;4.10;99.90;;;;;;5450004;26;20291;-73
2024/04/18 04:31:48;;;;;;;2.55;2.35;;;4.10;99.90;;;;;;5450466;26;20278;-72
2024/04/18 04:34:17;;;;;;;3.33;2.23;;;4.00;99.90;;;;;;5450439;26;20230;-73
2024/04/18 04:36:45;;;;;;;2.35;1.80;;;4.00;99.90;;;;;;5450844;26;20618;-73
2024/04/18 04:39:13;;;;;;;2.17;1.98;;;4.10;99.90;;;;;;5449523;26;20436;-73
2024/04/18 04:41:39;;;;;;;2.03;1.83;;;4.10;99.90;;;;;;5450038;26;20623;-72
2024/04/18 04:44:07;;;;;;;2.57;1.80;;;4.10;99.90;;;;;;5450342;26;20235;-73
2024/04/18 04:46:33;;;;;;;2.08;1.88;;;4.20;99.90;;;;;;5450051;26;20515;-72
2024/04/18 04:49:02;;;;;;;2.20;1.97;;;4.20;99.90;;;;;;5449930;26;20238;-72
2024/04/18 04:51:27;;;;;;;2.90;2.60;;;4.20;99.90;;;;;;5449947;26;20231;-72
2024/04/18 04:53:58;;;;;;;3.53;2.50;;;4.20;99.90;;;;;;5450102;26;20339;-72
2024/04/18 04:56:24;;;;;;;2.20;2.00;;;4.20;99.90;;;;;;5449710;26;20270;-72
2024/04/18 04:58:52;;;;;;;2.13;1.93;;;4.20;99.90;;;;;;5449688;26;20579;-72
2024/04/18 05:01:18;;;;;;;2.00;1.75;;;4.30;99.90;;;;;;5449357;26;20237;-72
2024/04/18 05:03:46;;;;;;;1.80;1.53;;;4.30;99.90;;;;;;5449829;26;20276;-72
2024/04/18 05:06:12;;;;;;;1.77;1.67;;;4.30;99.90;;;;;;5449837;26;20231;-73
2024/04/18 05:08:40;;;;;;;2.23;2.03;;;4.30;99.90;;;;;;5449468;26;20234;-72
2024/04/18 05:11:09;;;;;;;5.05;2.75;;;4.30;99.90;;;;;;5449210;26;20266;-72
2024/04/18 05:13:37;;;;;;;3.53;2.88;;;4.30;99.90;;;;;;5449493;26;20251;-72
2024/04/18 05:16:03;;;;;;;3.85;3.15;;;4.30;99.90;;;;;;5449798;26;20233;-72
2024/04/18 05:18:32;;;;;;;3.28;2.88;;;4.30;99.90;;;;;;5451860;26;20303;-72
2024/04/18 05:20:57;;;;;;;3.90;3.55;;;4.30;99.90;;;;;;5453098;26;20231;-72
2024/04/18 05:23:26;;;;;;;3.97;3.07;;;4.40;99.90;;;;;;5453016;26;20236;-73
2024/04/18 05:25:52;;;;;;;3.42;3.00;;;4.40;99.90;;;;;;5453345;26;20541;-72
2024/04/18 05:28:30;;;;;;;3.70;3.10;;;4.50;99.90;;;;;;5452760;26;20346;-72
2024/04/18 05:31:01;;;;;;;4.43;3.78;;;4.50;99.90;;;;;;5452729;26;20300;-73
2024/04/18 05:33:29;;;;;;;4.60;3.40;;;4.60;99.90;;;;;;5452986;26;20689;-73
2024/04/18 05:35:56;;;;;;;4.80;3.30;;;4.60;99.90;;;;;;5452878;26;20266;-72
2024/04/18 05:38:24;;;;;;;3.38;3.05;;;4.60;99.90;;;;;;5452578;26;20321;-73
2024/04/18 05:40:53;;;;;;;3.60;2.85;;;4.60;99.90;;;;;;5452444;26;20510;-73
2024/04/18 05:43:24;;;;;;;4.20;2.65;;;4.60;99.90;;;;;;5452459;26;20236;-72
2024/04/18 05:45:53;;;;;;;3.85;3.45;;;4.50;99.90;;;;;;5452851;26;20580;-72
2024/04/18 05:48:22;;;;;;;3.40;3.10;;;4.60;99.90;;;;;;5452165;26;20243;-72
2024/04/18 05:50:50;;;;;;;5.18;3.25;;;4.60;99.90;;;;;;5452364;26;20649;-72
2024/04/18 05:53:19;;;;;;;3.97;3.00;;;4.60;99.90;;;;;;5452436;26;20241;-72
2024/04/18 05:55:48;;;;;;;3.85;3.03;;;4.60;99.90;;;;;;5452628;26;20237;-72
2024/04/18 05:58:16;;;;;;;3.85;3.55;;;4.60;99.90;;;;;;5452448;26;20697;-72
2024/04/18 06:00:47;;;;;;;4.00;3.20;;;4.70;99.90;;;;;;5452978;26;20269;-73
2024/04/18 06:03:16;;;;;;;4.13;3.22;;;4.70;99.90;;;;;;5452944;26;20749;-72
2024/04/18 06:05:41;;;;;;;3.40;3.05;;;4.70;99.90;;;;;;5452551;26;20304;-72
2024/04/18 06:08:10;;;;;;;3.40;3.10;;;4.80;99.90;;;;;;5452284;26;20642;-72
2024/04/18 06:10:38;;;;;;;3.65;3.35;;;4.80;99.90;;;;;;5451404;26;20237;-72
2024/04/18 06:13:08;;;;;;;3.75;3.42;;;4.80;99.90;;;;;;5452537;26;20272;-72
2024/04/18 06:15:37;;;;;;;4.13;3.58;;;4.80;99.90;;;;;;5452392;26;20829;-72
2024/04/18 06:18:08;;;;;;;2.90;2.70;;;4.80;99.90;;;;;;5452275;26;20571;-72
2024/04/18 06:20:41;;;;;;;2.80;2.60;;;4.80;99.90;;;;;;5451680;26;20236;-72
2024/04/18 06:23:10;;;;;;;2.60;2.40;;;4.80;99.90;;;;;;5452382;26;20234;-72
2024/04/18 06:25:38;;;;;;;4.03;2.72;;;4.80;99.90;;;;;;5451551;26;20284;-72
2024/04/18 06:28:10;;;;;;;3.30;3.00;;;4.70;99.90;;;;;;5452021;26;20340;-72
2024/04/18 06:30:38;;;;;;;4.03;2.90;;;4.80;99.90;;;;;;5450640;26;20584;-72
2024/04/18 06:33:09;;;;;;;4.07;2.88;;;4.80;99.90;;;;;;5451861;26;20301;-72
2024/04/18 06:35:38;;;;;;;3.22;2.92;;;4.80;99.90;;;;;;5451521;26;20257;-72
2024/04/18 06:38:07;;;;;;;3.50;3.17;;;4.90;99.90;;;;;;5451672;26;20283;-72
2024/04/18 06:40:35;;;;;;;4.47;3.47;;;5.00;99.90;;;;;;5451169;26;20236;-72
2024/04/18 06:43:04;;;;;;;2.67;2.47;;;5.00;99.90;;;;;;5452061;26;20625;-72
2024/04/18 06:45:33;;;;;;;4.50;2.92;;;5.00;99.90;;;;;;5451458;26;20249;-71
2024/04/18 06:48:01;;;;;;;5.78;3.08;;;5.10;99.90;;;;;;5451679;26;20737;-72
2024/04/18 06:50:32;;;;;;;3.42;3.05;;;5.00;99.90;;;;;;5451314;26;20233;-72
2024/04/18 06:52:58;;;;;;;3.25;2.95;;;5.10;99.90;;;;;;5442184;26;20236;-72
2024/04/18 06:55:26;;;;;;;2.80;2.30;;;5.20;99.90;;;;;;5444389;26;20240;-72
2024/04/18 06:57:55;;;;;;;3.22;2.70;;;5.20;99.90;;;;;;5443987;26;20300;-72
2024/04/18 07:00:24;;;;;;;3.67;3.10;;;5.30;99.90;;;;;;5451424;26;20278;-72
2024/04/18 07:02:52;;;;;;;3.83;3.30;;;5.30;99.90;;;;;;5451474;26;20246;-72
2024/04/18 07:05:20;;;;;;;3.03;2.65;;;5.40;99.90;;;;;;5451818;26;20263;-72
2024/04/18 07:07:54;;;;;;;4.18;3.60;;;5.50;99.90;;;;;;5451592;26;20284;-72
2024/04/18 07:10:23;;;;;;;2.60;2.40;;;5.50;99.90;;;;;;5450798;26;20232;-72
2024/04/18 07:12:51;;;;;;;3.22;2.75;;;5.50;99.90;;;;;;5451293;26;20324;-72
2024/04/18 07:15:19;;;;;;;3.83;3.42;;;5.60;99.90;;;;;;5451216;26;20333;-72
2024/04/18 07:17:48;;;;;;;4.57;3.08;;;5.60;99.90;;;;;;5450761;26;20287;-72
2024/04/18 07:20:16;;;;;;;3.58;3.20;;;5.60;99.90;;;;;;5450769;26;20236;-72
2024/04/18 07:22:44;;;;;;;2.92;2.65;;;5.60;99.90;;;;;;5451606;26;20233;-72
2024/04/18 07:25:16;;;;;;;5.50;3.85;;;5.60;99.90;;;;;;5451069;26;20238;-72
2024/04/18 07:27:44;;;;;;;3.50;3.20;;;5.60;99.90;;;;;;5451373;26;20237;-72
2024/04/18 07:30:15;;;;;;;3.00;2.80;;;5.50;99.90;;;;;;5450972;26;20257;-72
2024/04/18 07:32:43;;;;;;;6.03;2.25;;;5.50;99.90;;;;;;5451315;26;20272;-72
2024/04/18 07:35:11;;;;;;;2.58;1.90;;;5.40;99.90;;;;;;5451206;26;20237;-72
2024/04/18 07:37:40;;;;;;;1.90;1.70;;;5.20;99.90;;;;;;5450928;26;20233;-72
2024/04/18 07:40:14;;;;;;;2.03;1.35;;;5.10;99.90;;;;;;5450741;26;20332;-72
2024/04/18 07:42:43;;;;;;;1.98;1.70;;;5.00;99.90;;;;;;5451174;26;20668;-72
2024/04/18 07:45:11;;;;;;;1.95;1.63;;;4.90;99.90;;;;;;5451096;26;20328;-72
2024/04/18 07:47:40;;;;;;;2.17;1.50;;;4.80;99.90;;;;;;5451103;26;20256;-72
2024/04/18 07:50:09;;;;;;;1.55;1.45;;;4.80;99.90;;;;;;5451409;26;20243;-72
2024/04/18 07:52:39;;;;;;;1.73;1.60;;;4.70;99.90;;;;;;5450812;26;20243;-72
2024/04/18 07:55:08;;;;;;;2.03;1.40;;;4.70;99.90;;;;;;5451019;26;20236;-72
2024/04/18 07:57:37;;;;;;;1.90;1.70;;;4.70;99.90;;;;;;5450735;26;20696;-72
2024/04/18 08:00:09;;;;;;;1.30;1.20;;;4.70;99.90;;;;;;5450628;26;20271;-72
2024/04/18 08:02:34;;;;;;;2.25;1.40;;;4.70;99.90;;;;;;5450957;26;20267;-72
2024/04/18 08:05:03;;;;;;;1.20;1.10;;;4.70;99.90;;;;;;5451688;26;20236;-72
2024/04/18 08:07:31;;;;;;;2.40;1.70;;;4.70;99.90;;;;;;5451396;26;20235;-72
2024/04/18 08:10:00;;;;;;;1.80;1.70;;;4.80;99.90;;;;;;5451308;26;20274;-73
2024/04/18 08:12:28;;;;;;;2.38;1.60;;;4.90;99.90;;;;;;5451432;26;20270;-72
2024/04/18 08:14:56;;;;;;;2.88;2.10;;;5.00;99.90;;;;;;5451316;26;20299;-72
2024/04/18 08:17:28;;;;;;;2.08;1.65;;;5.10;99.90;;;;;;5450535;26;20285;-72
2024/04/18 08:19:56;;;;;;;2.25;1.98;;;5.20;99.90;;;;;;5450350;26;20725;-72
2024/04/18 08:22:25;;;;;;;2.45;2.08;;;5.30;99.90;;;;;;5450425;26;20237;-72
2024/04/18 08:24:53;;;;;;;3.00;2.70;;;5.30;99.90;;;;;;5451041;26;20237;-72
2024/04/18 08:27:22;;;;;;;3.03;2.50;;;5.40;99.90;;;;;;5450536;26;20241;-72
2024/04/18 08:29:50;;;;;;;2.25;2.05;;;5.40;99.90;;;;;;5449891;26;20775;-72
2024/04/18 08:32:18;;;;;;;4.65;3.22;;;5.50;99.90;;;;;;5450579;26;20232;-73
2024/04/18 08:34:49;;;;;;;3.42;3.13;;;5.60;99.90;;;;;;5450582;26;20277;-73
2024/04/18 08:37:18;;;;;;;3.80;3.38;;;5.70;99.90;;;;;;5450729;26;20705;-72
2024/04/18 08:39:46;;;;;;;3.08;2.78;;;5.90;99.90;;;;;;5450213;26;20233;-73
2024/04/18 08:42:15;;;;;;;3.00;2.70;;;6.10;99.90;;;;;;5450343;26;20241;-73
2024/04/18 08:44:44;;;;;;;2.60;2.40;;;6.40;99.90;;;;;;5450117;26;20303;-72
2024/04/18 08:47:14;;;;;;;2.60;2.40;;;6.70;99.90;;;;;;5450226;26;20241;-73
2024/04/18 08:49:45;;;;;;;5.15;2.80;;;6.80;99.90;;;;;;5449557;26;20731;-72
2024/04/18 08:52:18;;;;;;;3.33;2.47;;;6.80;99.90;;;;;;5450667;26;20259;-72
2024/04/18 08:54:47;;;;;;;3.60;2.80;;;6.80;99.90;;;;;;5453515;26;20230;-73
2024/04/18 08:57:20;;;;;;;3.17;2.72;;;6.60;99.90;;;;;;5453490;26;20233;-72
2024/04/18 08:59:53;;;;;;;2.60;2.40;;;6.60;99.90;;;;;;5453108;26;20245;-72
2024/04/18 09:02:23;;;;;;;4.55;2.75;;;6.60;99.90;;;;;;5453544;26;20234;-72
2024/04/18 09:04:51;;;;;;;4.32;2.30;;;6.70;99.90;;;;;;5453458;26;20245;-73
2024/04/18 09:07:22;;;;;;;4.95;2.78;;;6.70;99.90;;;;;;5453257;26;20310;-72
2024/04/18 09:09:53;;;;;;;2.88;2.67;;;6.60;99.90;;;;;;5453023;26;20269;-72
2024/04/18 09:12:21;;;;;;;2.35;2.05;;;6.60;99.90;;;;;;5453402;26;20337;-72
2024/04/18 09:14:50;;;;;;;3.15;2.40;;;6.70;99.90;;;;;;5453530;26;20621;-72
2024/04/18 09:17:19;;;;;;;2.65;2.30;;;6.80;99.90;;;;;;5453201;26;20276;-72
2024/04/18 09:19:47;;;;;;;2.60;2.40;;;7.00;99.90;;;;;;5452797;26;20318;-72
2024/04/18 09:22:17;;;;;;;2.53;2.33;;;7.20;99.90;;;;;;5453218;26;20777;-72
2024/04/18 09:24:48;;;;;;;3.05;2.58;;;7.40;99.90;;;;;;5453162;26;20229;-72
2024/04/18 09:27:17;;;;;;;3.00;2.60;;;7.60;99.90;;;;;;5453198;26;20229;-72
2024/04/18 09:29:46;;;;;;;3.00;2.63;;;7.60;99.90;;;;;;5452500;26;20234;-72
2024/04/18 09:32:16;;;;;;;2.38;2.17;;;7.70;99.90;;;;;;5453198;26;20230;-72
2024/04/18 09:34:47;;;;;;;4.15;2.60;;;7.80;99.90;;;;;;5452868;26;20316;-72
2024/04/18 09:37:18;;;;;;;2.97;2.42;;;7.90;99.90;;;;;;5452937;26;20234;-72
2024/04/18 09:39:53;;;;;;;3.33;3.03;;;8.00;99.90;;;;;;5452826;26;20719;-73
2024/04/18 09:42:30;;;;;;;3.47;2.50;;;8.10;99.90;;;;;;5452964;26;20229;-72
2024/04/18 09:45:05;;;;;;;3.70;3.28;;;8.60;99.90;;;;;;5452920;26;20582;-72
2024/04/18 09:47:35;;;;;;;4.18;2.85;;;9.30;99.90;;;;;;5452813;26;20373;-71
2024/04/18 09:50:04;;;;;;;2.92;2.55;;;10.80;99.90;;;;;;5452330;26;20286;-72
2024/04/18 09:52:34;;;;;;;2.45;2.25;;;12.20;99.90;;;;;;5452880;26;20229;-73
2024/04/18 09:55:07;;;;;;;3.70;2.73;;;13.50;99.90;;;;;;5452758;26;20760;-73
2024/04/18 09:57:36;;;;;;;2.50;2.20;;;14.70;99.90;;;;;;5452645;26;20507;-73
2024/04/18 10:00:06;;;;;;;2.40;2.20;;;15.00;99.90;;;;;;5452266;26;20561;-73
2024/04/18 10:02:35;;;;;;;3.60;2.90;;;14.80;99.90;;;;;;5452609;26;20770;-72
2024/04/18 10:05:03;;;;;;;2.03;1.83;;;14.50;99.90;;;;;;5451326;26;20866;-72
2024/04/18 10:07:33;;;;;;;2.17;1.97;;;14.90;99.90;;;;;;5452476;26;20910;-73
2024/04/18 10:10:02;;;;;;;2.23;2.00;;;14.60;99.90;;;;;;5452106;26;20444;-72
2024/04/18 10:12:35;;;;;;;3.70;2.37;;;13.60;99.90;;;;;;5452548;26;20459;-73
2024/04/18 10:15:04;;;;;;;1.70;1.60;;;12.90;99.90;;;;;;5452600;26;20466;-72
2024/04/18 10:17:33;;;;;;;4.33;1.90;;;12.40;99.90;;;;;;5452568;26;20463;-73
2024/04/18 10:20:02;;;;;;;1.93;1.77;;;12.30;99.90;;;;;;5451795;26;20487;-72
2024/04/18 10:22:31;;;;;;;2.60;2.40;;;12.40;99.90;;;;;;5452384;26;20535;-71
2024/04/18 10:24:59;;;;;;;2.43;2.10;;;12.50;99.90;;;;;;5452294;26;20463;-72
2024/04/18 10:27:28;;;;;;;2.10;2.00;;;13.10;99.90;;;;;;5452541;26;20475;-72
2024/04/18 10:30:01;;;;;;;2.30;2.10;;;13.80;99.90;;;;;;5451633;26;20460;-71
2024/04/18 10:32:30;;;;;;;2.30;2.10;;;13.50;99.80;;;;;;5452658;26;20471;-72
2024/04/18 10:35:00;;;;;;;3.13;2.80;;;13.00;99.90;;;;;;5452063;26;20600;-72
2024/04/18 10:37:29;;;;;;;2.40;2.20;;;12.10;99.90;;;;;;5452210;26;21026;-72
2024/04/18 10:39:57;;;;;;;1.93;1.83;;;11.20;99.90;;;;;;5451625;26;20455;-71
2024/04/18 10:42:25;;;;;;;1.60;1.50;;;10.50;99.90;;;;;;5451967;26;20538;-71
2024/04/18 10:44:54;;;;;;;1.70;1.20;;;9.70;99.90;;;;;;5452088;26;20799;-71
2024/04/18 10:47:25;;;;;;;1.10;1.00;;;8.80;99.90;;;;;;5451820;26;20719;-72
2024/04/18 10:49:53;;;;;;;1.30;1.20;;;8.10;99.90;;;;;;5451400;26;20230;-71
2024/04/18 10:52:23;;;;;;;1.05;0.85;;;7.70;99.90;;;;;;5451930;26;20230;-71
2024/04/18 10:54:51;;;;;;;1.40;1.10;;;7.50;99.90;;;;;;5452659;26;20257;-71
2024/04/18 10:57:19;;;;;;;1.30;1.08;;;7.40;99.90;;;;;;5451920;26;21032;-71
2024/04/18 10:59:48;;;;;;;1.40;1.30;;;7.30;99.90;;;;;;5451467;26;20226;-72
2024/04/18 11:02:16;;;;;;;1.70;1.50;;;7.20;99.90;;;;;;5451874;26;20346;-71
2024/04/18 11:04:47;;;;;;;1.65;1.30;;;7.50;99.90;;;;;;5451795;26;20230;-72
2024/04/18 11:07:13;;;;;;;4.20;1.65;;;7.70;99.90;;;;;;5451823;26;20607;-71
2024/04/18 11:09:43;;;;;;;3.13;1.70;;;8.10;99.90;;;;;;5451034;26;20230;-71
2024/04/18 11:12:13;;;;;;;1.58;1.48;;;8.40;99.90;;;;;;5451779;26;20234;-71
2024/04/18 11:14:42;;;;;;;1.63;1.30;;;9.10;99.90;;;;;;5452027;26;20226;-71
2024/04/18 11:17:11;;;;;;;1.70;1.60;;;10.00;99.90;;;;;;5452113;26;20363;-72
2024/04/18 11:19:40;;;;;;;1.33;1.23;;;10.70;99.90;;;;;;5451050;26;20303;-73
2024/04/18 11:22:12;;;;;;;1.70;1.60;;;10.90;99.90;;;;;;5451655;26;20782;-72
2024/04/18 11:24:40;;;;;;;1.92;1.73;;;11.20;99.90;;;;;;5436643;26;20272;-71
2024/04/18 11:27:09;;;;;;;1.83;1.70;;;11.60;99.90;;;;;;5433136;26;20234;-72
2024/04/18 11:29:37;;;;;;;2.27;1.97;;;11.70;99.90;;;;;;5441941;26;20230;-72
2024/04/18 11:32:08;;;;;;;2.42;2.22;;;11.80;99.90;;;;;;5441799;26;20983;-72
2024/04/18 11:34:38;;;;;;;2.60;2.40;;;11.90;99.90;;;;;;5442388;26;20269;-72
2024/04/18 11:37:09;;;;;;;4.10;2.43;;;12.20;99.90;;;;;;5446906;26;20264;-72
2024/04/18 11:39:41;;;;;;;1.93;1.77;;;12.40;99.90;;;;;;5450591;26;20486;-73
2024/04/18 11:42:10;;;;;;;3.00;2.70;;;13.30;99.90;;;;;;5450298;26;20577;-73
2024/04/18 11:44:35;;;;;;;2.40;2.20;;;14.10;99.90;;;;;;5450288;26;20581;-72
2024/04/18 11:47:04;;;;;;;3.17;2.87;;;14.90;99.90;;;;;;5450282;26;20487;-73
2024/04/18 11:49:32;;;;;;;2.80;2.60;;;14.70;99.90;;;;;;5449802;26;21026;-73
2024/04/18 11:52:01;;;;;;;2.20;2.00;;;14.80;99.90;;;;;;5450491;26;20600;-73
2024/04/18 11:54:31;;;;;;;2.50;2.30;;;15.60;99.90;;;;;;5449772;26;20468;-73
2024/04/18 11:57:02;;;;;;;2.30;2.10;;;16.10;99.90;;;;;;5450208;26;20467;-73
2024/04/18 11:59:31;;;;;;;2.90;2.60;;;16.50;99.80;;;;;;5449915;26;20463;-73
2024/04/18 12:01:59;;;;;;;3.20;2.90;;;16.00;99.40;;;;;;5449445;26;20463;-73
2024/04/18 12:04:28;;;;;;;2.33;2.13;;;15.20;98.40;;;;;;5449599;26;20471;-72
2024/04/18 12:06:56;;;;;;;2.47;2.27;;;14.20;99.90;;;;;;5449935;26;21090;-73
2024/04/18 12:09:24;;;;;;;3.30;3.00;;;13.10;99.90;;;;;;5449463;26;20471;-73
2024/04/18 12:11:53;;;;;;;2.70;2.50;;;12.10;99.90;;;;;;5449821;26;20510;-72
2024/04/18 12:14:24;;;;;;;3.30;2.60;;;11.00;99.90;;;;;;5449551;26;20816;-72
2024/04/18 12:16:52;;;;;;;2.75;2.45;;;10.20;99.90;;;;;;5449833;26;20700;-73
2024/04/18 12:19:20;;;;;;;4.15;2.30;;;9.50;99.90;;;;;;5449676;26;20238;-72
2024/04/18 12:21:49;;;;;;;2.80;2.13;;;9.00;99.90;;;;;;5449910;26;20245;-73
2024/04/18 12:24:17;;;;;;;2.75;2.40;;;8.80;99.90;;;;;;5450105;26;20691;-72
2024/04/18 12:26:46;;;;;;;3.13;2.22;;;8.40;99.90;;;;;;5449934;26;20226;-73
2024/04/18 12:29:14;;;;;;;2.55;2.15;;;8.20;99.90;;;;;;5439304;26;20348;-73
2024/04/18 12:31:45;;;;;;;3.25;2.50;;;8.00;99.90;;;;;;5450241;26;20267;-72
2024/04/18 12:34:13;;;;;;;3.40;2.65;;;7.90;99.90;;;;;;5449918;26;20230;-73
2024/04/18 12:36:42;;;;;;;3.00;2.40;;;7.70;99.90;;;;;;5449791;26;20230;-72
2024/04/18 12:39:11;;;;;;;2.72;2.47;;;7.70;99.90;;;;;;5449224;26;20280;-72
2024/04/18 12:41:40;;;;;;;2.55;2.35;;;7.60;99.90;;;;;;5450167;26;20598;-72
2024/04/18 12:44:08;;;;;;;3.17;2.88;;;7.60;99.90;;;;;;5449704;26;20297;-72
2024/04/18 12:46:36;;;;;;;3.30;2.72;;;7.50;99.90;;;;;;5449874;26;20272;-72
2024/04/18 12:49:07;;;;;;;4.00;2.97;;;7.50;99.90;;;;;;5449432;26;20242;-73
2024/04/18 12:51:36;;;;;;;4.50;2.67;;;7.50;99.90;;;;;;5449839;26;20268;-71
2024/04/18 12:54:04;;;;;;;3.47;2.15;;;7.60;99.90;;;;;;5449656;26;20230;-72
2024/04/18 12:56:33;;;;;;;4.43;2.80;;;7.50;99.90;;;;;;5449698;26;20734;-72
2024/04/18 12:59:01;;;;;;;3.20;2.90;;;7.60;99.90;;;;;;5449427;26;20640;-72
2024/04/18 13:01:29;;;;;;;3.30;2.42;;;7.70;99.90;;;;;;5449546;26;20325;-72